sensor_id;sensor_type;location;lat;lon;timestamp;P1;durP1;ratioP1;P2;durP2;ratioP2
31368;SDS011;18004;48.416;10.066;2023-03-03T00:02:08;41.60;;;18.65;;
31368;SDS011;18004;48.416;10.066;2023-03-03T00:04:34;43.90;;;18.30;;
31368;SDS011;18004;48.416;10.066;2023-03-03T00:07:00;41.00;;;18.17;;
31368;SDS011;18004;48.416;10.066;2023-03-03T00:09:26;42.38;;;20.15;;
31368;SDS011;18004;48.416;10.066;2023-03-03T00:11:55;42.85;;;18.35;;
31368;SDS011;18004;48.416;10.066;2023-03-03T00:14:42;35.55;;;17.63;;
31368;SDS011;18004;48.416;10.066;2023-03-03T00:17:12;37.75;;;17.75;;
31368;SDS011;18004;48.416;10.066;2023-03-03T00:19:52;53.17;;;19.77;;
31368;SDS011;18004;48.416;10.066;2023-03-03T00:22:27;33.97;;;17.75;;
31368;SDS011;18004;48.416;10.066;2023-03-03T00:24:57;43.90;;;20.60;;
31368;SDS011;18004;48.416;10.066;2023-03-03T00:27:27;42.88;;;20.58;;
31368;SDS011;18004;48.416;10.066;2023-03-03T00:29:58;47.75;;;21.17;;
31368;SDS011;18004;48.416;10.066;2023-03-03T00:35:25;41.40;;;21.08;;
31368;SDS011;18004;48.416;10.066;2023-03-03T00:37:57;59.88;;;29.17;;
31368;SDS011;18004;48.416;10.066;2023-03-03T00:40:25;50.72;;;25.48;;
31368;SDS011;18004;48.416;10.066;2023-03-03T00:43:00;64.93;;;30.23;;
31368;SDS011;18004;48.416;10.066;2023-03-03T00:45:28;69.85;;;32.75;;
31368;SDS011;18004;48.416;10.066;2023-03-03T00:47:56;60.72;;;29.15;;
31368;SDS011;18004;48.416;10.066;2023-03-03T00:55:35;48.63;;;21.52;;
31368;SDS011;18004;48.416;10.066;2023-03-03T00:58:01;50.83;;;25.02;;
31368;SDS011;18004;48.416;10.066;2023-03-03T01:00:28;47.75;;;24.02;;
31368;SDS011;18004;48.416;10.066;2023-03-03T01:02:54;44.75;;;23.35;;
31368;SDS011;18004;48.416;10.066;2023-03-03T01:05:20;42.63;;;21.45;;
31368;SDS011;18004;48.416;10.066;2023-03-03T01:07:46;43.28;;;21.25;;
31368;SDS011;18004;48.416;10.066;2023-03-03T01:10:12;38.08;;;19.13;;
31368;SDS011;18004;48.416;10.066;2023-03-03T01:12:38;38.58;;;17.80;;
31368;SDS011;18004;48.416;10.066;2023-03-03T01:15:05;35.72;;;17.58;;
31368;SDS011;18004;48.416;10.066;2023-03-03T01:17:32;38.38;;;18.80;;
31368;SDS011;18004;48.416;10.066;2023-03-03T01:19:59;45.70;;;20.60;;
31368;SDS011;18004;48.416;10.066;2023-03-03T01:22:25;40.40;;;18.73;;
31368;SDS011;18004;48.416;10.066;2023-03-03T01:24:51;46.15;;;19.00;;
31368;SDS011;18004;48.416;10.066;2023-03-03T01:27:17;34.05;;;17.45;;
31368;SDS011;18004;48.416;10.066;2023-03-03T01:29:42;38.75;;;20.00;;
31368;SDS011;18004;48.416;10.066;2023-03-03T01:32:08;40.33;;;19.17;;
31368;SDS011;18004;48.416;10.066;2023-03-03T01:34:34;51.53;;;18.73;;
31368;SDS011;18004;48.416;10.066;2023-03-03T01:36:59;40.22;;;18.52;;
31368;SDS011;18004;48.416;10.066;2023-03-03T01:39:25;42.10;;;18.75;;
31368;SDS011;18004;48.416;10.066;2023-03-03T01:41:51;38.53;;;18.80;;
31368;SDS011;18004;48.416;10.066;2023-03-03T01:44:17;45.30;;;18.65;;
31368;SDS011;18004;48.416;10.066;2023-03-03T01:52:21;41.45;;;17.70;;
31368;SDS011;18004;48.416;10.066;2023-03-03T01:55:02;44.70;;;19.33;;
31368;SDS011;18004;48.416;10.066;2023-03-03T01:57:35;43.22;;;20.67;;
31368;SDS011;18004;48.416;10.066;2023-03-03T02:00:07;50.42;;;22.75;;
31368;SDS011;18004;48.416;10.066;2023-03-03T02:02:34;51.95;;;23.92;;
31368;SDS011;18004;48.416;10.066;2023-03-03T02:05:00;52.17;;;23.77;;
31368;SDS011;18004;48.416;10.066;2023-03-03T02:07:27;49.83;;;24.23;;
31368;SDS011;18004;48.416;10.066;2023-03-03T02:10:05;46.35;;;22.73;;
31368;SDS011;18004;48.416;10.066;2023-03-03T02:12:41;48.55;;;23.05;;
31368;SDS011;18004;48.416;10.066;2023-03-03T02:15:21;54.15;;;25.42;;
31368;SDS011;18004;48.416;10.066;2023-03-03T02:18:21;50.92;;;25.27;;
31368;SDS011;18004;48.416;10.066;2023-03-03T02:20:44;53.22;;;27.25;;
31368;SDS011;18004;48.416;10.066;2023-03-03T02:23:26;51.53;;;25.70;;
31368;SDS011;18004;48.416;10.066;2023-03-03T02:28:26;44.42;;;20.77;;
31368;SDS011;18004;48.416;10.066;2023-03-03T02:30:55;43.05;;;20.17;;
31368;SDS011;18004;48.416;10.066;2023-03-03T02:33:23;44.10;;;19.17;;
31368;SDS011;18004;48.416;10.066;2023-03-03T02:35:49;62.05;;;22.73;;
31368;SDS011;18004;48.416;10.066;2023-03-03T02:40:59;43.88;;;19.33;;
31368;SDS011;18004;48.416;10.066;2023-03-03T02:43:48;41.22;;;17.95;;
31368;SDS011;18004;48.416;10.066;2023-03-03T02:46:24;39.95;;;18.92;;
31368;SDS011;18004;48.416;10.066;2023-03-03T02:48:50;43.88;;;20.48;;
31368;SDS011;18004;48.416;10.066;2023-03-03T02:51:15;41.28;;;19.05;;
31368;SDS011;18004;48.416;10.066;2023-03-03T02:53:41;37.28;;;18.77;;
31368;SDS011;18004;48.416;10.066;2023-03-03T02:56:07;44.33;;;19.67;;
31368;SDS011;18004;48.416;10.066;2023-03-03T02:58:34;45.15;;;18.80;;
31368;SDS011;18004;48.416;10.066;2023-03-03T03:01:00;43.15;;;18.88;;
31368;SDS011;18004;48.416;10.066;2023-03-03T03:03:26;38.15;;;17.92;;
31368;SDS011;18004;48.416;10.066;2023-03-03T03:05:52;42.50;;;19.40;;
31368;SDS011;18004;48.416;10.066;2023-03-03T03:08:18;31.40;;;16.92;;
31368;SDS011;18004;48.416;10.066;2023-03-03T03:10:43;45.72;;;20.02;;
31368;SDS011;18004;48.416;10.066;2023-03-03T03:13:09;36.83;;;18.38;;
31368;SDS011;18004;48.416;10.066;2023-03-03T03:15:36;45.13;;;19.40;;
31368;SDS011;18004;48.416;10.066;2023-03-03T03:18:02;38.42;;;20.35;;
31368;SDS011;18004;48.416;10.066;2023-03-03T03:20:28;46.65;;;20.15;;
31368;SDS011;18004;48.416;10.066;2023-03-03T03:22:54;45.38;;;19.23;;
31368;SDS011;18004;48.416;10.066;2023-03-03T03:25:20;44.47;;;18.75;;
31368;SDS011;18004;48.416;10.066;2023-03-03T03:27:46;37.90;;;18.23;;
31368;SDS011;18004;48.416;10.066;2023-03-03T03:30:12;45.40;;;17.45;;
31368;SDS011;18004;48.416;10.066;2023-03-03T03:32:38;36.42;;;18.27;;
31368;SDS011;18004;48.416;10.066;2023-03-03T03:35:04;38.58;;;17.48;;
31368;SDS011;18004;48.416;10.066;2023-03-03T03:37:30;49.90;;;21.05;;
31368;SDS011;18004;48.416;10.066;2023-03-03T03:39:56;43.50;;;20.38;;
31368;SDS011;18004;48.416;10.066;2023-03-03T03:42:21;43.63;;;19.85;;
31368;SDS011;18004;48.416;10.066;2023-03-03T03:44:47;40.13;;;19.50;;
31368;SDS011;18004;48.416;10.066;2023-03-03T03:47:15;38.05;;;18.58;;
31368;SDS011;18004;48.416;10.066;2023-03-03T03:49:40;37.08;;;19.42;;
31368;SDS011;18004;48.416;10.066;2023-03-03T03:52:06;47.92;;;19.73;;
31368;SDS011;18004;48.416;10.066;2023-03-03T03:54:32;44.13;;;19.60;;
31368;SDS011;18004;48.416;10.066;2023-03-03T03:56:58;42.97;;;18.70;;
31368;SDS011;18004;48.416;10.066;2023-03-03T03:59:24;52.83;;;22.23;;
31368;SDS011;18004;48.416;10.066;2023-03-03T04:01:50;56.92;;;21.92;;
31368;SDS011;18004;48.416;10.066;2023-03-03T04:04:16;51.63;;;23.02;;
31368;SDS011;18004;48.416;10.066;2023-03-03T04:06:42;45.45;;;21.35;;
31368;SDS011;18004;48.416;10.066;2023-03-03T04:09:07;41.17;;;20.85;;
31368;SDS011;18004;48.416;10.066;2023-03-03T04:11:33;41.38;;;20.45;;
31368;SDS011;18004;48.416;10.066;2023-03-03T04:13:59;48.78;;;21.52;;
31368;SDS011;18004;48.416;10.066;2023-03-03T04:16:24;49.10;;;21.33;;
31368;SDS011;18004;48.416;10.066;2023-03-03T04:18:50;48.42;;;20.02;;
31368;SDS011;18004;48.416;10.066;2023-03-03T04:21:16;37.42;;;18.65;;
31368;SDS011;18004;48.416;10.066;2023-03-03T04:23:42;46.00;;;21.63;;
31368;SDS011;18004;48.416;10.066;2023-03-03T04:26:08;42.72;;;21.20;;
31368;SDS011;18004;48.416;10.066;2023-03-03T04:28:34;41.72;;;22.08;;
31368;SDS011;18004;48.416;10.066;2023-03-03T04:31:00;46.38;;;22.65;;
31368;SDS011;18004;48.416;10.066;2023-03-03T04:33:26;49.40;;;23.65;;
31368;SDS011;18004;48.416;10.066;2023-03-03T04:35:52;38.80;;;21.00;;
31368;SDS011;18004;48.416;10.066;2023-03-03T04:38:17;47.42;;;24.52;;
31368;SDS011;18004;48.416;10.066;2023-03-03T04:40:43;54.03;;;22.45;;
31368;SDS011;18004;48.416;10.066;2023-03-03T04:43:09;52.30;;;22.92;;
31368;SDS011;18004;48.416;10.066;2023-03-03T04:45:35;43.00;;;20.10;;
31368;SDS011;18004;48.416;10.066;2023-03-03T04:48:01;44.80;;;21.00;;
31368;SDS011;18004;48.416;10.066;2023-03-03T04:50:28;47.80;;;21.23;;
31368;SDS011;18004;48.416;10.066;2023-03-03T04:52:53;42.83;;;20.27;;
31368;SDS011;18004;48.416;10.066;2023-03-03T04:55:19;49.92;;;19.73;;
31368;SDS011;18004;48.416;10.066;2023-03-03T04:57:45;37.67;;;19.85;;
31368;SDS011;18004;48.416;10.066;2023-03-03T05:00:11;34.83;;;19.42;;
31368;SDS011;18004;48.416;10.066;2023-03-03T05:02:38;36.83;;;19.08;;
31368;SDS011;18004;48.416;10.066;2023-03-03T05:05:09;38.33;;;20.25;;
31368;SDS011;18004;48.416;10.066;2023-03-03T05:07:35;50.40;;;19.10;;
31368;SDS011;18004;48.416;10.066;2023-03-03T05:10:01;37.78;;;18.25;;
31368;SDS011;18004;48.416;10.066;2023-03-03T05:12:27;40.60;;;20.33;;
31368;SDS011;18004;48.416;10.066;2023-03-03T05:14:53;35.63;;;18.50;;
31368;SDS011;18004;48.416;10.066;2023-03-03T05:17:18;39.50;;;19.10;;
31368;SDS011;18004;48.416;10.066;2023-03-03T05:19:44;41.58;;;19.02;;
31368;SDS011;18004;48.416;10.066;2023-03-03T05:22:10;39.13;;;18.25;;
31368;SDS011;18004;48.416;10.066;2023-03-03T05:24:35;42.00;;;19.60;;
31368;SDS011;18004;48.416;10.066;2023-03-03T05:27:01;51.65;;;20.17;;
31368;SDS011;18004;48.416;10.066;2023-03-03T05:29:27;38.20;;;19.02;;
31368;SDS011;18004;48.416;10.066;2023-03-03T05:31:56;45.25;;;18.75;;
31368;SDS011;18004;48.416;10.066;2023-03-03T05:34:22;45.70;;;18.13;;
31368;SDS011;18004;48.416;10.066;2023-03-03T05:36:48;46.38;;;19.83;;
31368;SDS011;18004;48.416;10.066;2023-03-03T05:39:14;41.65;;;20.25;;
31368;SDS011;18004;48.416;10.066;2023-03-03T05:41:39;41.88;;;19.27;;
31368;SDS011;18004;48.416;10.066;2023-03-03T05:44:05;47.03;;;18.95;;
31368;SDS011;18004;48.416;10.066;2023-03-03T05:46:31;46.28;;;18.90;;
31368;SDS011;18004;48.416;10.066;2023-03-03T05:48:57;40.55;;;19.15;;
31368;SDS011;18004;48.416;10.066;2023-03-03T05:51:23;38.13;;;19.17;;
31368;SDS011;18004;48.416;10.066;2023-03-03T05:53:49;40.40;;;19.60;;
31368;SDS011;18004;48.416;10.066;2023-03-03T05:56:15;39.25;;;19.20;;
31368;SDS011;18004;48.416;10.066;2023-03-03T05:58:41;39.65;;;18.75;;
31368;SDS011;18004;48.416;10.066;2023-03-03T06:01:07;34.63;;;18.65;;
31368;SDS011;18004;48.416;10.066;2023-03-03T06:03:32;31.63;;;17.85;;
31368;SDS011;18004;48.416;10.066;2023-03-03T06:05:58;38.78;;;19.25;;
31368;SDS011;18004;48.416;10.066;2023-03-03T06:08:24;39.58;;;18.63;;
31368;SDS011;18004;48.416;10.066;2023-03-03T06:10:50;39.25;;;18.40;;
31368;SDS011;18004;48.416;10.066;2023-03-03T06:13:16;45.47;;;19.23;;
31368;SDS011;18004;48.416;10.066;2023-03-03T06:15:41;42.25;;;20.88;;
31368;SDS011;18004;48.416;10.066;2023-03-03T06:18:07;43.30;;;22.15;;
31368;SDS011;18004;48.416;10.066;2023-03-03T06:20:33;50.83;;;23.33;;
31368;SDS011;18004;48.416;10.066;2023-03-03T06:23:01;49.50;;;25.27;;
31368;SDS011;18004;48.416;10.066;2023-03-03T06:25:26;38.10;;;22.20;;
31368;SDS011;18004;48.416;10.066;2023-03-03T06:27:52;47.08;;;20.95;;
31368;SDS011;18004;48.416;10.066;2023-03-03T06:30:18;41.50;;;21.20;;
31368;SDS011;18004;48.416;10.066;2023-03-03T06:32:44;44.25;;;20.40;;
31368;SDS011;18004;48.416;10.066;2023-03-03T06:35:10;54.47;;;21.00;;
31368;SDS011;18004;48.416;10.066;2023-03-03T06:37:36;45.15;;;21.17;;
31368;SDS011;18004;48.416;10.066;2023-03-03T06:40:03;42.63;;;20.48;;
31368;SDS011;18004;48.416;10.066;2023-03-03T06:42:29;36.75;;;19.48;;
31368;SDS011;18004;48.416;10.066;2023-03-03T06:44:55;41.53;;;19.88;;
31368;SDS011;18004;48.416;10.066;2023-03-03T06:47:21;34.95;;;19.13;;
31368;SDS011;18004;48.416;10.066;2023-03-03T06:49:47;44.42;;;19.38;;
31368;SDS011;18004;48.416;10.066;2023-03-03T06:52:18;46.70;;;20.08;;
31368;SDS011;18004;48.416;10.066;2023-03-03T06:54:48;33.53;;;19.15;;
31368;SDS011;18004;48.416;10.066;2023-03-03T07:00:28;47.22;;;19.13;;
31368;SDS011;18004;48.416;10.066;2023-03-03T07:03:10;48.08;;;19.80;;
31368;SDS011;18004;48.416;10.066;2023-03-03T07:08:14;42.00;;;19.35;;
31368;SDS011;18004;48.416;10.066;2023-03-03T07:10:42;44.50;;;19.85;;
31368;SDS011;18004;48.416;10.066;2023-03-03T07:13:25;39.42;;;18.13;;
31368;SDS011;18004;48.416;10.066;2023-03-03T07:15:53;40.00;;;19.10;;
31368;SDS011;18004;48.416;10.066;2023-03-03T07:18:34;38.08;;;18.33;;
31368;SDS011;18004;48.416;10.066;2023-03-03T07:21:15;45.10;;;20.63;;
31368;SDS011;18004;48.416;10.066;2023-03-03T07:23:45;42.03;;;19.40;;
31368;SDS011;18004;48.416;10.066;2023-03-03T07:26:33;47.72;;;20.90;;
31368;SDS011;18004;48.416;10.066;2023-03-03T07:34:04;40.10;;;19.75;;
31368;SDS011;18004;48.416;10.066;2023-03-03T07:36:46;42.17;;;18.80;;
31368;SDS011;18004;48.416;10.066;2023-03-03T07:39:29;45.08;;;19.85;;
31368;SDS011;18004;48.416;10.066;2023-03-03T07:44:44;45.13;;;21.27;;
31368;SDS011;18004;48.416;10.066;2023-03-03T07:49:54;53.15;;;22.23;;
31368;SDS011;18004;48.416;10.066;2023-03-03T07:52:25;60.03;;;25.42;;
31368;SDS011;18004;48.416;10.066;2023-03-03T08:03:07;54.55;;;24.23;;
31368;SDS011;18004;48.416;10.066;2023-03-03T08:05:40;44.10;;;20.92;;
31368;SDS011;18004;48.416;10.066;2023-03-03T08:11:01;48.70;;;22.15;;
31368;SDS011;18004;48.416;10.066;2023-03-03T08:13:28;47.80;;;20.65;;
31368;SDS011;18004;48.416;10.066;2023-03-03T08:18:37;45.17;;;21.77;;
31368;SDS011;18004;48.416;10.066;2023-03-03T08:21:21;48.00;;;20.27;;
31368;SDS011;18004;48.416;10.066;2023-03-03T08:23:48;43.70;;;19.50;;
31368;SDS011;18004;48.416;10.066;2023-03-03T08:26:17;38.17;;;20.33;;
31368;SDS011;18004;48.416;10.066;2023-03-03T08:28:44;44.03;;;19.92;;
31368;SDS011;18004;48.416;10.066;2023-03-03T08:31:10;39.35;;;19.83;;
31368;SDS011;18004;48.416;10.066;2023-03-03T08:33:37;44.47;;;20.98;;
31368;SDS011;18004;48.416;10.066;2023-03-03T08:36:03;51.08;;;20.50;;
31368;SDS011;18004;48.416;10.066;2023-03-03T08:38:30;47.83;;;21.80;;
31368;SDS011;18004;48.416;10.066;2023-03-03T08:40:56;37.47;;;20.95;;
31368;SDS011;18004;48.416;10.066;2023-03-03T08:43:21;41.53;;;20.52;;
31368;SDS011;18004;48.416;10.066;2023-03-03T08:45:49;50.30;;;20.80;;
31368;SDS011;18004;48.416;10.066;2023-03-03T08:48:16;44.67;;;19.67;;
31368;SDS011;18004;48.416;10.066;2023-03-03T08:50:43;38.50;;;20.27;;
31368;SDS011;18004;48.416;10.066;2023-03-03T08:53:09;42.80;;;20.15;;
31368;SDS011;18004;48.416;10.066;2023-03-03T08:55:36;49.92;;;21.70;;
31368;SDS011;18004;48.416;10.066;2023-03-03T08:58:02;48.45;;;21.25;;
31368;SDS011;18004;48.416;10.066;2023-03-03T09:00:28;38.95;;;19.88;;
31368;SDS011;18004;48.416;10.066;2023-03-03T09:02:54;44.53;;;19.52;;
31368;SDS011;18004;48.416;10.066;2023-03-03T09:05:20;44.33;;;19.83;;
31368;SDS011;18004;48.416;10.066;2023-03-03T09:07:47;42.72;;;20.52;;
31368;SDS011;18004;48.416;10.066;2023-03-03T09:10:17;42.47;;;18.35;;
31368;SDS011;18004;48.416;10.066;2023-03-03T09:12:50;43.75;;;19.88;;
31368;SDS011;18004;48.416;10.066;2023-03-03T09:15:25;43.47;;;20.00;;
31368;SDS011;18004;48.416;10.066;2023-03-03T09:17:57;50.03;;;21.53;;
31368;SDS011;18004;48.416;10.066;2023-03-03T09:20:53;45.20;;;19.20;;
31368;SDS011;18004;48.416;10.066;2023-03-03T09:23:38;56.58;;;21.73;;
31368;SDS011;18004;48.416;10.066;2023-03-03T09:28:54;45.05;;;23.02;;
31368;SDS011;18004;48.416;10.066;2023-03-03T09:31:41;51.17;;;23.98;;
31368;SDS011;18004;48.416;10.066;2023-03-03T09:34:18;46.67;;;23.80;;
31368;SDS011;18004;48.416;10.066;2023-03-03T09:36:45;50.63;;;24.08;;
31368;SDS011;18004;48.416;10.066;2023-03-03T09:39:16;46.88;;;22.83;;
31368;SDS011;18004;48.416;10.066;2023-03-03T09:57:59;43.28;;;19.13;;
31368;SDS011;18004;48.416;10.066;2023-03-03T10:03:14;41.38;;;19.63;;
31368;SDS011;18004;48.416;10.066;2023-03-03T10:14:28;45.05;;;20.23;;
31368;SDS011;18004;48.416;10.066;2023-03-03T10:20:21;40.42;;;19.85;;
31368;SDS011;18004;48.416;10.066;2023-03-03T10:23:14;44.90;;;19.23;;
31368;SDS011;18004;48.416;10.066;2023-03-03T10:25:53;37.05;;;18.40;;
31368;SDS011;18004;48.416;10.066;2023-03-03T10:31:14;46.72;;;19.83;;
31368;SDS011;18004;48.416;10.066;2023-03-03T10:36:45;38.78;;;18.35;;
31368;SDS011;18004;48.416;10.066;2023-03-03T10:45:15;35.40;;;16.92;;
31368;SDS011;18004;48.416;10.066;2023-03-03T10:47:52;35.85;;;16.60;;
31368;SDS011;18004;48.416;10.066;2023-03-03T11:06:47;34.72;;;17.38;;
31368;SDS011;18004;48.416;10.066;2023-03-03T11:12:11;41.33;;;17.95;;
31368;SDS011;18004;48.416;10.066;2023-03-03T11:18:40;36.53;;;17.70;;
31368;SDS011;18004;48.416;10.066;2023-03-03T11:23:34;35.90;;;16.42;;
31368;SDS011;18004;48.416;10.066;2023-03-03T11:31:41;30.63;;;15.80;;
31368;SDS011;18004;48.416;10.066;2023-03-03T11:34:22;34.15;;;17.13;;
31368;SDS011;18004;48.416;10.066;2023-03-03T11:37:21;31.65;;;17.48;;
31368;SDS011;18004;48.416;10.066;2023-03-03T11:39:54;45.33;;;16.60;;
31368;SDS011;18004;48.416;10.066;2023-03-03T11:42:25;42.28;;;18.15;;
31368;SDS011;18004;48.416;10.066;2023-03-03T11:45:13;42.40;;;17.23;;
31368;SDS011;18004;48.416;10.066;2023-03-03T11:50:33;17.05;;;8.23;;
31368;SDS011;18004;48.416;10.066;2023-03-03T11:53:12;42.83;;;18.02;;
31368;SDS011;18004;48.416;10.066;2023-03-03T11:59:25;32.15;;;12.80;;
31368;SDS011;18004;48.416;10.066;2023-03-03T12:04:39;44.40;;;17.10;;
31368;SDS011;18004;48.416;10.066;2023-03-03T12:12:17;33.97;;;15.82;;
31368;SDS011;18004;48.416;10.066;2023-03-03T12:20:42;32.45;;;16.20;;
31368;SDS011;18004;48.416;10.066;2023-03-03T12:26:08;33.05;;;16.20;;
31368;SDS011;18004;48.416;10.066;2023-03-03T12:29:06;27.33;;;14.15;;
31368;SDS011;18004;48.416;10.066;2023-03-03T12:31:54;32.05;;;16.40;;
31368;SDS011;18004;48.416;10.066;2023-03-03T12:34:49;33.13;;;15.65;;
31368;SDS011;18004;48.416;10.066;2023-03-03T12:37:35;26.95;;;14.70;;
31368;SDS011;18004;48.416;10.066;2023-03-03T12:40:24;25.63;;;13.75;;
31368;SDS011;18004;48.416;10.066;2023-03-03T12:48:36;30.35;;;15.10;;
31368;SDS011;18004;48.416;10.066;2023-03-03T12:51:20;33.70;;;16.35;;
31368;SDS011;18004;48.416;10.066;2023-03-03T12:56:51;34.03;;;15.23;;
31368;SDS011;18004;48.416;10.066;2023-03-03T13:04:45;28.88;;;15.30;;
31368;SDS011;18004;48.416;10.066;2023-03-03T13:07:42;32.08;;;15.88;;
31368;SDS011;18004;48.416;10.066;2023-03-03T13:29:06;33.00;;;15.93;;
31368;SDS011;18004;48.416;10.066;2023-03-03T13:31:40;28.90;;;14.20;;
31368;SDS011;18004;48.416;10.066;2023-03-03T13:36:58;28.07;;;14.13;;
31368;SDS011;18004;48.416;10.066;2023-03-03T13:39:33;33.95;;;15.98;;
31368;SDS011;18004;48.416;10.066;2023-03-03T13:42:07;28.30;;;14.82;;
31368;SDS011;18004;48.416;10.066;2023-03-03T13:44:48;28.67;;;14.25;;
31368;SDS011;18004;48.416;10.066;2023-03-03T13:47:18;27.60;;;14.75;;
31368;SDS011;18004;48.416;10.066;2023-03-03T13:49:58;28.27;;;14.52;;
31368;SDS011;18004;48.416;10.066;2023-03-03T13:52:32;26.95;;;14.43;;
31368;SDS011;18004;48.416;10.066;2023-03-03T13:55:24;35.30;;;16.02;;
31368;SDS011;18004;48.416;10.066;2023-03-03T13:57:59;27.17;;;15.65;;
31368;SDS011;18004;48.416;10.066;2023-03-03T14:05:25;28.55;;;14.27;;
31368;SDS011;18004;48.416;10.066;2023-03-03T14:08:13;25.77;;;13.45;;
31368;SDS011;18004;48.416;10.066;2023-03-03T14:13:55;24.35;;;14.07;;
31368;SDS011;18004;48.416;10.066;2023-03-03T14:19:26;36.25;;;14.10;;
31368;SDS011;18004;48.416;10.066;2023-03-03T14:30:18;24.08;;;13.32;;
31368;SDS011;18004;48.416;10.066;2023-03-03T14:35:24;25.50;;;14.52;;
31368;SDS011;18004;48.416;10.066;2023-03-03T14:43:37;29.65;;;14.05;;
31368;SDS011;18004;48.416;10.066;2023-03-03T14:48:56;28.73;;;14.02;;
31368;SDS011;18004;48.416;10.066;2023-03-03T14:51:24;26.90;;;14.30;;
31368;SDS011;18004;48.416;10.066;2023-03-03T14:56:55;24.63;;;13.60;;
31368;SDS011;18004;48.416;10.066;2023-03-03T14:59:31;28.27;;;13.70;;
31368;SDS011;18004;48.416;10.066;2023-03-03T15:04:42;31.55;;;13.63;;
31368;SDS011;18004;48.416;10.066;2023-03-03T15:09:50;29.52;;;13.80;;
31368;SDS011;18004;48.416;10.066;2023-03-03T15:12:17;22.10;;;12.77;;
31368;SDS011;18004;48.416;10.066;2023-03-03T15:14:51;28.35;;;13.05;;
31368;SDS011;18004;48.416;10.066;2023-03-03T15:17:28;32.30;;;13.10;;
31368;SDS011;18004;48.416;10.066;2023-03-03T15:20:50;24.20;;;13.85;;
31368;SDS011;18004;48.416;10.066;2023-03-03T15:23:16;30.13;;;13.57;;
31368;SDS011;18004;48.416;10.066;2023-03-03T15:31:17;25.50;;;13.02;;
31368;SDS011;18004;48.416;10.066;2023-03-03T15:34:20;23.88;;;13.45;;
31368;SDS011;18004;48.416;10.066;2023-03-03T15:39:40;28.85;;;12.27;;
31368;SDS011;18004;48.416;10.066;2023-03-03T15:59:23;27.45;;;12.63;;
31368;SDS011;18004;48.416;10.066;2023-03-03T16:04:53;21.98;;;12.27;;
31368;SDS011;18004;48.416;10.066;2023-03-03T16:13:20;21.83;;;13.32;;
31368;SDS011;18004;48.416;10.066;2023-03-03T16:18:44;32.90;;;14.25;;
31368;SDS011;18004;48.416;10.066;2023-03-03T16:31:06;24.30;;;13.18;;
31368;SDS011;18004;48.416;10.066;2023-03-03T16:33:35;23.92;;;13.20;;
31368;SDS011;18004;48.416;10.066;2023-03-03T16:38:43;29.00;;;13.82;;
31368;SDS011;18004;48.416;10.066;2023-03-03T16:42:02;28.90;;;13.25;;
31368;SDS011;18004;48.416;10.066;2023-03-03T16:53:25;23.67;;;13.20;;
31368;SDS011;18004;48.416;10.066;2023-03-03T16:56:08;26.95;;;14.07;;
31368;SDS011;18004;48.416;10.066;2023-03-03T17:09:22;43.60;;;15.77;;
31368;SDS011;18004;48.416;10.066;2023-03-03T17:12:16;36.05;;;15.95;;
31368;SDS011;18004;48.416;10.066;2023-03-03T17:15:16;32.22;;;15.75;;
31368;SDS011;18004;48.416;10.066;2023-03-03T17:18:01;26.88;;;15.38;;
31368;SDS011;18004;48.416;10.066;2023-03-03T17:23:11;32.15;;;14.38;;
31368;SDS011;18004;48.416;10.066;2023-03-03T17:31:16;28.40;;;14.07;;
31368;SDS011;18004;48.416;10.066;2023-03-03T17:42:08;25.52;;;14.05;;
31368;SDS011;18004;48.416;10.066;2023-03-03T17:44:52;29.80;;;15.07;;
31368;SDS011;18004;48.416;10.066;2023-03-03T17:47:55;32.88;;;16.30;;
31368;SDS011;18004;48.416;10.066;2023-03-03T18:01:19;39.13;;;16.98;;
31368;SDS011;18004;48.416;10.066;2023-03-03T18:04:06;39.30;;;16.77;;
31368;SDS011;18004;48.416;10.066;2023-03-03T18:07:11;38.30;;;16.52;;
31368;SDS011;18004;48.416;10.066;2023-03-03T18:23:18;39.53;;;17.50;;
31368;SDS011;18004;48.416;10.066;2023-03-03T18:25:56;37.60;;;17.20;;
31368;SDS011;18004;48.416;10.066;2023-03-03T18:28:45;31.33;;;16.02;;
31368;SDS011;18004;48.416;10.066;2023-03-03T18:31:24;39.58;;;15.98;;
31368;SDS011;18004;48.416;10.066;2023-03-03T18:33:59;28.00;;;16.13;;
31368;SDS011;18004;48.416;10.066;2023-03-03T18:39:03;31.02;;;16.48;;
31368;SDS011;18004;48.416;10.066;2023-03-03T18:44:54;40.55;;;17.33;;
31368;SDS011;18004;48.416;10.066;2023-03-03T18:47:25;36.92;;;16.05;;
31368;SDS011;18004;48.416;10.066;2023-03-03T18:53:06;34.78;;;16.23;;
31368;SDS011;18004;48.416;10.066;2023-03-03T18:55:45;32.92;;;17.35;;
31368;SDS011;18004;48.416;10.066;2023-03-03T19:00:51;31.33;;;17.08;;
31368;SDS011;18004;48.416;10.066;2023-03-03T19:03:24;37.63;;;16.85;;
31368;SDS011;18004;48.416;10.066;2023-03-03T19:05:51;35.88;;;18.63;;
31368;SDS011;18004;48.416;10.066;2023-03-03T19:08:26;37.72;;;17.73;;
31368;SDS011;18004;48.416;10.066;2023-03-03T19:16:52;36.80;;;18.17;;
31368;SDS011;18004;48.416;10.066;2023-03-03T19:19:19;36.30;;;17.70;;
31368;SDS011;18004;48.416;10.066;2023-03-03T19:21:49;37.10;;;17.42;;
31368;SDS011;18004;48.416;10.066;2023-03-03T19:24:30;36.10;;;16.70;;
31368;SDS011;18004;48.416;10.066;2023-03-03T19:27:16;32.67;;;16.25;;
31368;SDS011;18004;48.416;10.066;2023-03-03T19:51:30;28.23;;;15.60;;
31368;SDS011;18004;48.416;10.066;2023-03-03T19:57:25;32.03;;;15.02;;
31368;SDS011;18004;48.416;10.066;2023-03-03T20:00:31;31.90;;;14.52;;
31368;SDS011;18004;48.416;10.066;2023-03-03T20:09:02;34.33;;;15.70;;
31368;SDS011;18004;48.416;10.066;2023-03-03T20:14:27;30.63;;;15.60;;
31368;SDS011;18004;48.416;10.066;2023-03-03T20:22:39;29.67;;;15.30;;
31368;SDS011;18004;48.416;10.066;2023-03-03T20:27:51;36.20;;;16.17;;
31368;SDS011;18004;48.416;10.066;2023-03-03T20:38:48;32.33;;;17.05;;
31368;SDS011;18004;48.416;10.066;2023-03-03T20:46:40;34.45;;;16.55;;
31368;SDS011;18004;48.416;10.066;2023-03-03T20:51:55;38.85;;;17.52;;
31368;SDS011;18004;48.416;10.066;2023-03-03T21:04:47;30.13;;;16.08;;
31368;SDS011;18004;48.416;10.066;2023-03-03T21:10:27;41.15;;;16.10;;
31368;SDS011;18004;48.416;10.066;2023-03-03T21:15:54;33.08;;;16.67;;
31368;SDS011;18004;48.416;10.066;2023-03-03T21:18:27;33.33;;;17.02;;
31368;SDS011;18004;48.416;10.066;2023-03-03T21:20:53;34.63;;;17.02;;
31368;SDS011;18004;48.416;10.066;2023-03-03T21:23:19;41.22;;;17.30;;
31368;SDS011;18004;48.416;10.066;2023-03-03T21:25:48;34.53;;;17.95;;
31368;SDS011;18004;48.416;10.066;2023-03-03T21:31:02;39.17;;;19.67;;
31368;SDS011;18004;48.416;10.066;2023-03-03T21:36:06;31.75;;;15.55;;
31368;SDS011;18004;48.416;10.066;2023-03-03T21:38:34;30.70;;;16.33;;
31368;SDS011;18004;48.416;10.066;2023-03-03T21:41:01;42.30;;;16.75;;
31368;SDS011;18004;48.416;10.066;2023-03-03T21:43:37;38.85;;;17.55;;
31368;SDS011;18004;48.416;10.066;2023-03-03T21:46:04;37.00;;;16.52;;